Time;durP1;ratioP1;P1;durP2;ratioP2;P2;SDS_P1;SDS_P2;PMS_P1;PMS_P2;Temp;Humidity;BMP_temperature;BMP_pressure;BME280_temperature;BME280_humidity;BME280_pressure;Samples;Min_cycle;Max_cycle;Signal;HPM_P1;HPM_P2
2022/08/08 00:00:10;;;;;;;;;2.00;2.00;;;;;20.09;42.28;101418.22;4950141;28;45350;-74
2022/08/08 00:02:54;;;;;;;;;2.00;2.00;;;;;20.09;42.41;101426.28;4934138;28;45410;-76
2022/08/08 00:05:34;;;;;;;;;4.50;3.25;;;;;19.98;42.81;101416.03;4933556;28;46355;-74
2022/08/08 00:08:24;;;;;;;;;2.25;2.25;;;;;19.95;42.58;101426.03;4934372;28;45489;-74
2022/08/08 00:10:58;;;;;;;;;2.25;2.25;;;;;19.92;42.99;101412.75;4933553;28;45550;-74
2022/08/08 00:13:42;;;;;;;;;4.00;2.75;;;;;19.91;43.15;101417.25;4934355;28;45679;-76
2022/08/08 00:16:21;;;;;;;;;1.75;1.75;;;;;19.85;43.76;101412.19;4934462;28;46361;-75
2022/08/08 00:19:21;;;;;;;;;4.00;4.00;;;;;19.81;43.64;101416.78;4946780;28;45435;-74
2022/08/08 00:22:29;;;;;;;;;3.00;3.00;;;;;19.78;43.83;101414.25;4941287;28;45429;-73
2022/08/08 00:25:00;;;;;;;;;4.00;3.25;;;;;19.68;44.02;101405.72;4995226;28;45512;-74
2022/08/08 00:27:27;;;;;;;;;2.25;2.00;;;;;19.69;44.09;101409.28;4994195;28;46443;-75
2022/08/08 00:30:05;;;;;;;;;2.50;2.00;;;;;19.68;44.16;101411.09;4994705;28;45446;-74
2022/08/08 00:32:55;;;;;;;;;1.00;1.00;;;;;19.66;44.39;101398.69;4996141;28;45395;-73
2022/08/08 00:35:48;;;;;;;;;4.00;2.50;;;;;19.65;44.53;101405.00;4994718;28;45435;-74
2022/08/08 00:38:31;;;;;;;;;2.25;2.25;;;;;19.59;44.45;101399.94;4994191;28;46336;-76
2022/08/08 00:41:27;;;;;;;;;2.25;2.25;;;;;19.56;44.71;101414.31;4992565;28;45511;-75
2022/08/08 00:44:14;;;;;;;;;2.50;2.50;;;;;19.50;44.97;101411.91;4994771;28;45435;-76
2022/08/08 00:46:57;;;;;;;;;3.75;3.75;;;;;19.45;45.66;101419.28;4994627;28;45423;-75
2022/08/08 00:49:32;;;;;;;;;4.00;4.00;;;;;19.41;45.37;101405.16;4993999;28;45332;-75
2022/08/08 00:52:25;;;;;;;;;3.00;3.00;;;;;19.41;45.27;101402.47;4994746;28;45467;-75
2022/08/08 00:55:05;;;;;;;;;4.50;3.50;;;;;19.35;45.71;101414.31;4993953;28;45383;-74
2022/08/08 00:58:16;;;;;;;;;4.25;3.25;;;;;19.32;45.83;101397.50;4994154;28;45402;-75
2022/08/08 01:01:03;;;;;;;;;3.50;3.00;;;;;19.27;45.84;101411.13;4994210;28;46466;-74
2022/08/08 01:04:02;;;;;;;;;4.00;4.00;;;;;19.21;46.06;101405.13;4993882;28;45479;-74
2022/08/08 01:07:17;;;;;;;;;2.25;2.25;;;;;19.24;46.46;101416.59;4994322;28;45332;-73
2022/08/08 01:10:20;;;;;;;;;2.75;2.75;;;;;19.19;45.99;101410.56;4973763;28;45336;-74
2022/08/08 01:12:48;;;;;;;;;3.00;3.00;;;;;19.14;46.50;101404.53;4989884;28;45434;-75
2022/08/08 01:15:44;;;;;;;;;3.50;3.00;;;;;19.10;46.76;101400.22;4974459;28;45531;-75
2022/08/08 01:18:13;;;;;;;;;4.75;4.00;;;;;19.04;46.74;101392.47;4974409;28;45430;-75
2022/08/08 01:21:09;;;;;;;;;4.50;3.00;;;;;18.99;46.87;101393.56;4974339;28;45485;-74
2022/08/08 01:23:56;;;;;;;;;3.25;3.25;;;;;18.97;46.79;101389.19;4974322;28;45548;-74
2022/08/08 01:26:45;;;;;;;;;3.00;3.00;;;;;18.98;46.64;101390.94;4974097;28;45372;-74
2022/08/08 01:29:29;;;;;;;;;3.00;3.00;;;;;18.93;47.03;101391.13;4974309;28;45391;-74
2022/08/08 01:32:31;;;;;;;;;4.00;3.25;;;;;18.94;47.29;101389.31;4989018;28;45573;-74
2022/08/08 01:35:14;;;;;;;;;4.25;3.25;;;;;18.90;47.00;101385.00;4974344;28;45736;-73
2022/08/08 01:38:17;;;;;;;;;2.75;2.75;;;;;18.86;47.20;101384.28;4974650;28;45345;-74
2022/08/08 01:41:04;;;;;;;;;4.00;4.00;;;;;18.79;47.53;101388.97;4973800;28;45401;-74
2022/08/08 01:43:52;;;;;;;;;3.50;3.50;;;;;18.77;47.76;101390.00;4974270;28;45716;-74
2022/08/08 01:46:46;;;;;;;;;4.25;4.25;;;;;18.74;47.67;101390.97;4973877;28;45525;-74
2022/08/08 01:49:56;;;;;;;;;5.00;5.00;;;;;18.73;47.79;101386.56;4966601;28;45439;-75
2022/08/08 01:52:24;;;;;;;;;5.75;4.25;;;;;18.73;47.76;101393.72;4992353;28;45373;-74
2022/08/08 01:55:12;;;;;;;;;2.75;2.75;;;;;18.70;47.96;101399.22;4977023;28;45369;-74
2022/08/08 01:57:48;;;;;;;;;2.25;2.25;;;;;18.65;48.03;101397.56;4985161;28;46024;-74
2022/08/08 02:00:32;;;;;;;;;4.25;3.50;;;;;18.62;47.89;101400.38;4996472;28;45512;-73
2022/08/08 02:02:58;;;;;;;;;4.00;4.00;;;;;18.61;48.24;101395.97;4996631;28;45626;-73
2022/08/08 02:05:50;;;;;;;;;5.25;3.75;;;;;18.57;47.73;101399.72;4996749;28;45530;-73
2022/08/08 02:08:47;;;;;;;;;3.25;3.25;;;;;18.58;48.09;101396.06;4997312;28;45443;-74
2022/08/08 02:11:33;;;;;;;;;4.00;4.00;;;;;18.58;48.35;101401.44;4998022;28;45324;-74
2022/08/08 02:14:29;;;;;;;;;3.50;3.50;;;;;18.53;48.50;101389.19;4996645;28;45486;-74
2022/08/08 02:17:23;;;;;;;;;4.25;4.25;;;;;18.55;48.69;101398.03;4991791;28;45785;-74
2022/08/08 02:20:13;;;;;;;;;5.25;3.00;;;;;18.53;48.74;101397.22;4996637;28;46276;-73
2022/08/08 02:23:00;;;;;;;;;1.00;1.00;;;;;18.50;48.92;101398.22;4996523;28;45437;-74
2022/08/08 02:25:38;;;;;;;;;3.25;3.25;;;;;18.45;49.25;101389.50;4996245;28;45409;-74
2022/08/08 02:28:15;;;;;;;;;4.50;3.00;;;;;18.42;48.92;101390.50;4996595;28;45376;-75
2022/08/08 02:31:03;;;;;;;;;4.00;4.00;;;;;18.39;49.39;101389.75;4995611;28;47354;-73
2022/08/08 02:33:50;;;;;;;;;6.00;4.00;;;;;18.37;49.05;101391.59;4996934;28;45402;-75
2022/08/08 02:36:39;;;;;;;;;3.50;3.50;;;;;18.34;49.44;101397.97;4996428;28;45485;-74
2022/08/08 02:39:30;;;;;;;;;3.25;3.25;;;;;18.28;49.58;101396.41;4996255;28;45664;-75
2022/08/08 02:42:33;;;;;;;;;5.25;5.25;;;;;18.29;49.38;101394.56;4996855;28;45390;-76
2022/08/08 02:45:07;;;;;;;;;5.00;3.50;;;;;18.24;49.67;101389.41;4995607;28;45547;-74
2022/08/08 02:48:09;;;;;;;;;4.00;4.00;;;;;18.20;49.91;101390.44;4996040;28;45384;-74
2022/08/08 02:51:03;;;;;;;;;4.00;4.00;;;;;18.15;49.92;101394.25;4996291;28;45797;-73
2022/08/08 02:53:28;;;;;;;;;7.75;6.75;;;;;18.13;50.00;101394.31;4994816;28;46330;-75
2022/08/08 02:56:26;;;;;;;;;4.25;4.00;;;;;18.10;50.51;101394.44;4994486;28;45434;-75
2022/08/08 02:59:10;;;;;;;;;4.25;4.25;;;;;18.06;50.47;101392.81;4988561;28;45337;-75
2022/08/08 03:02:03;;;;;;;;;6.00;4.75;;;;;18.03;50.39;101398.28;4995648;28;45500;-75
2022/08/08 03:04:59;;;;;;;;;4.50;4.50;;;;;17.99;50.90;101404.66;4994871;28;47807;-75
2022/08/08 03:07:43;;;;;;;;;7.00;6.00;;;;;17.97;50.31;101403.84;4996305;28;45492;-75
2022/08/08 03:10:29;;;;;;;;;7.25;6.50;;;;;17.97;50.49;101393.16;4995188;28;45362;-75
2022/08/08 03:13:16;;;;;;;;;6.25;4.25;;;;;17.89;50.95;101396.13;4996000;28;45478;-75
2022/08/08 03:15:51;;;;;;;;;6.00;4.00;;;;;17.86;50.94;101396.22;4996392;28;45548;-74
2022/08/08 03:18:36;;;;;;;;;5.75;5.75;;;;;17.83;51.41;101397.19;4995574;28;45387;-74
2022/08/08 03:21:01;;;;;;;;;7.25;7.00;;;;;17.85;51.34;101410.50;4934927;28;45449;-75
2022/08/08 03:23:29;;;;;;;;;4.25;4.25;;;;;17.81;51.21;101399.06;4919332;28;45482;-74
2022/08/08 03:25:56;;;;;;;;;5.50;3.75;;;;;17.80;51.45;101404.47;4934411;28;45547;-75
2022/08/08 03:28:29;;;;;;;;;6.75;5.00;;;;;17.76;51.40;101403.69;4934466;28;45370;-74
2022/08/08 03:30:54;;;;;;;;;5.50;5.50;;;;;17.75;51.67;101405.50;4935472;28;45368;-75
2022/08/08 03:33:19;;;;;;;;;4.25;4.25;;;;;17.71;51.74;101405.66;4934934;28;45432;-74
2022/08/08 03:35:50;;;;;;;;;5.00;5.00;;;;;17.66;51.56;101399.59;4918450;28;45451;-74
2022/08/08 03:38:19;;;;;;;;;6.00;6.00;;;;;17.60;51.92;101403.38;4931208;28;45606;-75
2022/08/08 03:40:53;;;;;;;;;8.00;6.00;;;;;17.58;52.15;101405.22;4914782;28;45462;-74
2022/08/08 03:43:18;;;;;;;;;6.00;6.00;;;;;17.60;52.00;101416.75;4899119;28;45462;-74
2022/08/08 03:45:44;;;;;;;;;8.00;7.25;;;;;17.56;51.91;101407.09;4915654;28;45821;-75
2022/08/08 03:48:09;;;;;;;;;4.50;4.50;;;;;17.54;52.14;101411.63;4917439;28;45615;-74
2022/08/08 03:50:40;;;;;;;;;7.50;7.25;;;;;17.52;52.22;101403.66;4915466;28;45985;-74
2022/08/08 03:53:10;;;;;;;;;4.50;4.50;;;;;17.53;52.11;101420.56;4915467;28;45557;-75
2022/08/08 03:55:40;;;;;;;;;9.50;9.50;;;;;17.49;52.31;101417.13;4914955;28;46161;-75
2022/08/08 03:58:07;;;;;;;;;7.50;4.50;;;;;17.50;52.37;101421.53;4943706;28;45446;-75
2022/08/08 04:00:34;;;;;;;;;8.00;7.00;;;;;17.48;52.12;101422.53;4982916;28;45576;-74
2022/08/08 04:03:05;;;;;;;;;5.50;5.50;;;;;17.46;52.40;101419.03;4995131;28;45473;-75
2022/08/08 04:05:33;;;;;;;;;7.00;6.00;;;;;17.43;52.56;101421.81;4994696;28;46107;-75
2022/08/08 04:07:59;;;;;;;;;7.25;6.50;;;;;17.42;52.85;101422.75;4995002;28;45452;-75
2022/08/08 04:10:27;;;;;;;;;8.50;6.75;;;;;17.40;52.80;101420.13;4994872;28;45372;-75
2022/08/08 04:12:53;;;;;;;;;4.50;4.00;;;;;17.39;52.70;101423.72;4994327;28;45311;-75
2022/08/08 04:15:19;;;;;;;;;7.75;6.00;;;;;17.38;52.72;101421.97;4994281;28;45442;-75
2022/08/08 04:17:45;;;;;;;;;7.00;7.00;;;;;17.35;52.98;101422.94;4994980;28;45564;-74
2022/08/08 04:20:10;;;;;;;;;6.00;6.00;;;;;17.31;52.86;101420.44;4995079;28;45427;-75
2022/08/08 04:22:36;;;;;;;;;7.00;7.00;;;;;17.29;53.21;101425.84;4995230;28;45371;-75
2022/08/08 04:25:02;;;;;;;;;3.25;3.25;;;;;17.26;53.11;101422.41;4994640;28;45467;-75
2022/08/08 04:27:28;;;;;;;;;7.25;6.00;;;;;17.25;53.62;101426.88;4993952;28;45406;-76
2022/08/08 04:29:54;;;;;;;;;7.00;7.00;;;;;17.24;53.22;101425.13;4994668;28;45423;-75
2022/08/08 04:32:19;;;;;;;;;5.00;3.00;;;;;17.22;53.40;101427.84;4994525;28;45473;-74
2022/08/08 04:34:45;;;;;;;;;7.00;6.00;;;;;17.24;53.49;101425.13;4994896;28;45369;-75
2022/08/08 04:37:11;;;;;;;;;4.00;4.00;;;;;17.21;53.31;101431.44;4994606;28;45288;-75
2022/08/08 04:39:37;;;;;;;;;8.50;6.25;;;;;17.13;53.18;101420.16;4994436;28;45434;-75
2022/08/08 04:42:02;;;;;;;;;9.00;6.00;;;;;17.28;53.55;101431.22;4994897;28;45538;-74
2022/08/08 04:44:28;;;;;;;;;9.00;7.50;;;;;17.31;53.14;101425.78;4994643;28;46352;-76
2022/08/08 04:46:54;;;;;;;;;7.75;6.75;;;;;17.28;53.39;101431.22;4994738;28;45491;-76
2022/08/08 04:49:19;;;;;;;;;9.00;7.75;;;;;17.37;53.18;101436.28;4995106;28;45512;-76
2022/08/08 04:51:44;;;;;;;;;8.25;6.00;;;;;17.76;52.32;101438.44;4994436;28;45466;-74
2022/08/08 04:54:10;;;;;;;;;4.50;3.00;;;;;18.09;51.72;101440.84;4992557;28;46980;-75
2022/08/08 04:56:35;;;;;;;;;6.50;6.50;;;;;18.40;50.87;101436.97;4994397;28;45521;-74
2022/08/08 04:59:01;;;;;;;;;6.25;4.50;;;;;18.76;50.05;101436.44;4994505;28;45577;-74
2022/08/08 05:01:26;;;;;;;;;6.00;6.00;;;;;18.99;49.07;101433.72;4992094;28;45428;-74
2022/08/08 05:03:51;;;;;;;;;8.00;6.00;;;;;19.35;48.52;101445.63;4994599;28;46196;-74
2022/08/08 05:06:17;;;;;;;;;7.00;7.00;;;;;19.76;47.36;101432.19;4994058;28;45465;-73
2022/08/08 05:08:42;;;;;;;;;9.00;8.25;;;;;20.22;46.44;101443.53;4994201;28;45381;-74
2022/08/08 05:11:12;;;;;;;;;7.50;6.25;;;;;20.64;45.80;101443.38;4993753;28;45383;-74
2022/08/08 05:13:41;;;;;;;;;8.75;7.00;;;;;21.02;44.55;101441.50;4993917;28;45379;-76
2022/08/08 05:16:06;;;;;;;;;6.00;6.00;;;;;21.58;43.77;101442.25;4993843;28;45528;-75
2022/08/08 05:18:41;;;;;;;;;8.00;7.25;;;;;22.05;42.39;101448.72;4993959;28;45403;-76
2022/08/08 05:21:09;;;;;;;;;6.75;5.75;;;;;22.35;41.73;101448.03;4994153;28;45418;-75
2022/08/08 05:23:35;;;;;;;;;4.00;4.00;;;;;22.63;41.25;101436.56;4993757;28;45420;-75
2022/08/08 05:26:01;;;;;;;;;8.00;8.00;;;;;22.91;40.33;101442.16;4995532;28;45525;-75
2022/08/08 05:28:27;;;;;;;;;8.25;6.00;;;;;23.22;39.48;101444.81;4997179;28;45425;-76
2022/08/08 05:30:52;;;;;;;;;9.25;9.00;;;;;23.60;39.08;101447.03;4997793;28;45396;-75
2022/08/08 05:33:18;;;;;;;;;8.00;6.75;;;;;23.95;38.21;101438.59;4996585;28;46884;-75
2022/08/08 05:35:45;;;;;;;;;9.00;9.00;;;;;24.33;37.85;101453.34;4996690;28;45345;-75
2022/08/08 05:38:16;;;;;;;;;6.50;6.50;;;;;24.68;36.93;101449.34;4997195;28;45419;-75
2022/08/08 05:40:45;;;;;;;;;7.50;7.00;;;;;24.95;36.51;101450.22;4996699;28;45475;-74
2022/08/08 05:43:25;;;;;;;;;6.25;6.25;;;;;25.13;36.38;101447.25;4995871;28;45561;-75
2022/08/08 05:45:56;;;;;;;;;7.00;7.00;;;;;25.31;35.82;101445.13;4997019;28;45376;-74
2022/08/08 05:48:21;;;;;;;;;6.50;6.50;;;;;25.44;35.40;101459.56;4995489;28;45592;-75
2022/08/08 05:50:48;;;;;;;;;9.25;7.25;;;;;25.69;34.83;101460.53;4997044;28;45379;-74
2022/08/08 05:53:15;;;;;;;;;5.50;5.50;;;;;26.12;35.04;101456.69;4996866;28;45466;-75
2022/08/08 05:55:43;;;;;;;;;6.75;6.75;;;;;26.51;33.94;101454.72;4996447;28;45439;-75
2022/08/08 05:58:11;;;;;;;;;8.00;7.00;;;;;26.55;33.58;101453.53;4997205;28;45335;-75
2022/08/08 06:00:38;;;;;;;;;7.50;6.25;;;;;26.93;33.18;101460.69;4995447;28;45373;-74
2022/08/08 06:03:11;;;;;;;;;6.25;6.00;;;;;27.24;32.68;101459.22;4996988;28;45318;-75
2022/08/08 06:05:44;;;;;;;;;8.00;8.00;;;;;27.26;32.17;101459.94;4996781;28;45412;-75
2022/08/08 06:08:13;;;;;;;;;9.50;8.25;;;;;27.58;32.13;101458.47;5010899;28;45604;-77
2022/08/08 06:10:40;;;;;;;;;7.00;7.00;;;;;27.80;31.53;101441.34;4996294;28;45514;-75
2022/08/08 06:13:07;;;;;;;;;8.50;7.00;;;;;28.08;31.36;101447.31;4997085;28;45351;-74
2022/08/08 06:15:34;;;;;;;;;9.00;7.00;;;;;28.53;30.78;101464.44;4996630;28;45386;-74
2022/08/08 06:18:01;;;;;;;;;8.25;8.25;;;;;28.82;30.23;101461.19;4997318;28;45438;-76
2022/08/08 06:20:27;;;;;;;;;6.25;6.25;;;;;29.11;30.19;101460.59;4996203;28;45450;-74
2022/08/08 06:22:53;;;;;;;;;8.50;8.50;;;;;29.46;29.09;101462.19;4995701;28;46667;-73
2022/08/08 06:25:18;;;;;;;;;7.50;7.00;;;;;29.60;28.81;101460.97;4995880;28;45462;-74
2022/08/08 06:27:52;;;;;;;;;10.00;9.00;;;;;29.94;28.77;101474.38;4996388;28;45507;-75
2022/08/08 06:30:20;;;;;;;;;7.00;7.00;;;;;30.26;28.32;101471.50;4996953;28;45398;-74
2022/08/08 06:32:53;;;;;;;;;6.75;6.75;;;;;30.56;27.95;101472.47;4994851;28;46781;-75
2022/08/08 06:35:19;;;;;;;;;7.00;5.75;;;;;30.88;27.75;101474.09;4996068;28;45453;-74
2022/08/08 06:37:51;;;;;;;;;7.25;7.00;;;;;31.24;27.26;101479.91;4995401;28;45407;-75
2022/08/08 06:40:18;;;;;;;;;8.00;6.75;;;;;31.75;26.99;101479.72;4995304;28;45383;-75
2022/08/08 06:42:52;;;;;;;;;8.00;8.00;;;;;32.09;25.98;101473.72;4996436;28;46700;-75
2022/08/08 06:45:20;;;;;;;;;5.50;5.50;;;;;32.33;25.45;101463.13;4996543;28;45427;-74
2022/08/08 06:47:46;;;;;;;;;7.75;7.75;;;;;32.81;25.49;101483.00;4994627;28;45447;-75
2022/08/08 06:50:11;;;;;;;;;7.25;7.25;;;;;33.24;24.55;101467.72;4995089;28;45308;-76
2022/08/08 06:52:38;;;;;;;;;8.00;7.25;;;;;33.50;24.52;101480.59;5011037;28;45902;-75
2022/08/08 06:55:05;;;;;;;;;10.00;9.00;;;;;33.81;24.33;101472.78;4995514;28;45432;-74
2022/08/08 06:57:31;;;;;;;;;8.25;6.75;;;;;34.12;23.56;101479.63;4996479;28;45404;-74
2022/08/08 06:59:57;;;;;;;;;9.00;9.00;;;;;34.35;22.95;101471.69;4997070;28;45475;-75
2022/08/08 07:02:29;;;;;;;;;8.50;8.50;;;;;34.12;23.82;101475.00;4996171;28;46267;-75
2022/08/08 07:05:00;;;;;;;;;7.00;7.00;;;;;34.07;23.73;101477.34;4995656;28;46256;-75
2022/08/08 07:07:50;;;;;;;;;8.50;7.00;;;;;34.18;23.82;101479.81;4996287;28;45348;-76
2022/08/08 07:10:20;;;;;;;;;5.75;5.75;;;;;33.91;23.29;101483.63;4995624;28;45543;-74
2022/08/08 07:13:07;;;;;;;;;6.50;6.50;;;;;34.02;23.77;101484.38;4995898;28;45386;-75
2022/08/08 07:15:42;;;;;;;;;8.75;8.75;;;;;34.06;23.50;101492.09;4996311;28;45394;-76
2022/08/08 07:18:09;;;;;;;;;8.00;7.00;;;;;34.09;22.51;101480.81;4996227;28;45423;-75
2022/08/08 07:20:42;;;;;;;;;8.25;5.25;;;;;33.89;22.71;101476.56;4997461;28;45386;-78
2022/08/08 07:23:28;;;;;;;;;7.75;7.75;;;;;33.88;23.41;101483.09;4996411;28;46287;-74
2022/08/08 07:25:58;;;;;;;;;7.25;6.25;;;;;33.87;23.25;101495.91;4934038;28;45469;-75
2022/08/08 07:28:24;;;;;;;;;9.50;8.00;;;;;33.82;23.60;101487.34;4935051;28;45476;-75
2022/08/08 07:30:50;;;;;;;;;8.00;6.75;;;;;33.77;23.17;101501.53;4934703;28;45608;-75
2022/08/08 07:33:21;;;;;;;;;11.50;9.75;;;;;33.61;23.52;101504.13;4935458;28;45580;-74
2022/08/08 07:35:47;;;;;;;;;7.00;7.00;;;;;33.54;23.23;101508.50;4934314;28;45565;-75
2022/08/08 07:38:14;;;;;;;;;7.25;7.25;;;;;33.75;23.26;101506.28;4934934;28;45412;-75
2022/08/08 07:40:40;;;;;;;;;7.50;7.50;;;;;34.10;23.17;101499.00;4934691;28;45403;-74
2022/08/08 07:43:05;;;;;;;;;7.75;7.75;;;;;34.47;22.84;101510.66;4934366;28;46278;-74
2022/08/08 07:45:31;;;;;;;;;7.00;6.25;;;;;34.43;23.19;101499.16;4934727;28;45418;-75
2022/08/08 07:47:57;;;;;;;;;6.75;6.75;;;;;34.56;23.53;101511.53;4935112;28;45341;-75
2022/08/08 07:50:24;;;;;;;;;7.00;7.00;;;;;35.04;22.42;101502.59;4934212;28;45663;-75
2022/08/08 07:52:54;;;;;;;;;7.00;7.00;;;;;35.33;22.09;101506.78;4934831;28;45633;-75
2022/08/08 07:55:20;;;;;;;;;6.50;5.50;;;;;35.26;21.50;101504.81;4934442;28;45404;-75
2022/08/08 07:58:19;;;;;;;;;5.00;5.00;;;;;35.37;21.47;101507.28;4934800;28;45410;-74
2022/08/08 08:00:51;;;;;;;;;4.50;4.50;;;;;35.31;22.03;101514.31;4934482;28;45636;-76
2022/08/08 08:03:29;;;;;;;;;5.00;5.00;;;;;35.13;21.66;101508.94;4971203;28;45314;-75
2022/08/08 08:05:57;;;;;;;;;4.00;4.00;;;;;35.15;21.83;101498.66;4995341;28;45487;-75
2022/08/08 08:08:37;;;;;;;;;6.50;6.00;;;;;35.21;21.72;101497.09;4995533;28;45409;-75
2022/08/08 08:11:06;;;;;;;;;6.00;6.00;;;;;35.23;22.18;101509.66;4995407;28;45518;-75
2022/08/08 08:13:39;;;;;;;;;4.00;4.00;;;;;35.35;21.62;101510.19;4995338;28;46098;-75
2022/08/08 08:16:07;;;;;;;;;5.50;4.50;;;;;35.51;21.65;101501.09;4995550;28;45316;-76
2022/08/08 08:18:43;;;;;;;;;4.25;4.25;;;;;35.49;21.76;101502.31;4994062;28;45409;-76
2022/08/08 08:21:09;;;;;;;;;5.00;4.00;;;;;35.41;21.37;101497.69;4995139;28;45673;-76
2022/08/08 08:23:36;;;;;;;;;6.00;6.00;;;;;35.39;21.41;101510.72;4995018;28;46394;-76
2022/08/08 08:26:02;;;;;;;;;6.00;6.00;;;;;35.48;21.70;101506.06;4994430;28;45555;-77
2022/08/08 08:28:27;;;;;;;;;3.75;3.75;;;;;35.55;21.18;101510.69;4994840;28;45387;-74
2022/08/08 08:30:54;;;;;;;;;4.75;4.75;;;;;35.44;21.25;101502.81;4995225;28;45556;-75
2022/08/08 08:33:20;;;;;;;;;4.50;4.50;;;;;35.62;21.27;101508.09;4994875;28;45397;-74
2022/08/08 08:35:45;;;;;;;;;6.00;4.00;;;;;35.79;21.09;101500.75;4994975;28;45459;-76
2022/08/08 08:38:11;;;;;;;;;5.25;4.75;;;;;35.64;21.44;101513.44;4994623;28;45470;-75
2022/08/08 08:40:37;;;;;;;;;4.00;4.00;;;;;35.67;20.91;101507.63;4994414;28;45469;-75
2022/08/08 08:43:03;;;;;;;;;4.00;4.00;;;;;35.87;21.34;101505.38;4994864;28;46380;-74
2022/08/08 08:45:30;;;;;;;;;6.25;4.00;;;;;36.19;20.67;101507.16;4994636;28;45415;-74
2022/08/08 08:47:55;;;;;;;;;4.00;4.00;;;;;36.02;20.61;101505.50;4994395;28;45354;-75
2022/08/08 08:50:23;;;;;;;;;3.75;3.75;;;;;35.87;20.47;101508.97;4994465;28;45336;-76
2022/08/08 08:52:48;;;;;;;;;4.75;4.75;;;;;35.85;21.10;101499.16;4994671;28;46021;-74
2022/08/08 08:55:17;;;;;;;;;2.75;2.75;;;;;35.94;21.74;101511.84;4993606;28;45495;-76
2022/08/08 08:57:47;;;;;;;;;4.50;4.50;;;;;36.08;20.92;101496.56;4994381;28;45478;-75
2022/08/08 09:00:12;;;;;;;;;5.25;5.00;;;;;36.09;20.98;101495.50;4993757;28;45700;-74
2022/08/08 09:02:40;;;;;;;;;5.25;5.25;;;;;36.13;20.67;101502.38;4994174;28;46181;-76
2022/08/08 09:05:07;;;;;;;;;3.75;3.75;;;;;36.21;21.07;101502.31;4994818;28;45515;-75
2022/08/08 09:07:34;;;;;;;;;5.25;4.75;;;;;35.96;20.09;101506.22;4994117;28;45495;-76
2022/08/08 09:10:00;;;;;;;;;4.50;4.50;;;;;35.63;20.66;101506.25;4993047;28;45402;-75
2022/08/08 09:12:27;;;;;;;;;3.00;3.00;;;;;35.45;21.38;101512.75;4994151;28;46306;-75
2022/08/08 09:14:56;;;;;;;;;2.00;1.75;;;;;35.46;20.80;101505.41;4994493;28;45448;-75
2022/08/08 09:17:24;;;;;;;;;3.75;3.75;;;;;35.45;20.46;101509.16;5001758;28;45518;-74
2022/08/08 09:19:59;;;;;;;;;4.50;4.50;;;;;35.49;20.70;101505.91;4996037;28;45499;-77
2022/08/08 09:22:25;;;;;;;;;5.00;5.00;;;;;35.50;20.16;101499.38;4994650;28;45356;-75
2022/08/08 09:24:52;;;;;;;;;3.50;3.50;;;;;35.84;19.95;101512.06;4994421;28;45474;-75
2022/08/08 09:27:19;;;;;;;;;3.00;3.00;;;;;36.21;19.92;101505.06;4992993;28;45404;-75
2022/08/08 09:29:58;;;;;;;;;2.50;2.50;;;;;36.24;19.86;101507.47;4994194;28;45517;-76
2022/08/08 09:32:47;;;;;;;;;6.00;5.25;;;;;36.10;20.13;101499.97;4993655;28;45422;-76
2022/08/08 09:35:27;;;;;;;;;4.00;2.75;;;;;36.13;19.45;101496.03;4994244;28;45509;-74
2022/08/08 09:37:55;;;;;;;;;4.25;4.25;;;;;35.73;19.50;101502.28;4994237;28;45346;-75
2022/08/08 09:40:23;;;;;;;;;3.50;3.50;;;;;35.78;19.28;101496.28;4993783;28;45439;-74
2022/08/08 09:43:02;;;;;;;;;3.00;3.00;;;;;35.86;21.29;101500.91;4994163;28;45494;-75
2022/08/08 09:45:37;;;;;;;;;5.00;4.00;;;;;36.20;19.35;101486.88;4993568;28;45412;-75
2022/08/08 09:48:04;;;;;;;;;4.00;4.00;;;;;36.09;19.78;101484.50;4994231;28;45417;-76
2022/08/08 09:50:30;;;;;;;;;4.00;4.00;;;;;36.03;20.38;101490.72;4993848;28;45484;-75
2022/08/08 09:52:56;;;;;;;;;6.75;4.50;;;;;36.02;19.55;101502.75;4993859;28;46003;-75
2022/08/08 09:55:29;;;;;;;;;5.25;4.50;;;;;35.88;19.77;101504.31;4993696;28;45409;-72
2022/08/08 09:58:05;;;;;;;;;4.50;4.50;;;;;36.20;20.19;101497.88;4994148;28;45383;-73
2022/08/08 10:00:34;;;;;;;;;4.75;4.75;;;;;36.42;19.78;101503.66;4993105;28;45461;-73
2022/08/08 10:03:02;;;;;;;;;8.75;5.75;;;;;36.23;19.76;101491.13;4993645;28;46577;-73
2022/08/08 10:05:36;;;;;;;;;3.00;3.00;;;;;36.00;19.38;101486.44;4993433;28;45488;-74
2022/08/08 10:08:03;;;;;;;;;4.25;4.00;;;;;35.71;19.57;101484.22;4993916;28;45423;-75
2022/08/08 10:10:37;;;;;;;;;4.75;4.75;;;;;35.66;19.86;101503.16;4993335;28;45529;-73
2022/08/08 10:13:19;;;;;;;;;3.75;3.00;;;;;36.02;19.49;101486.25;4994733;28;46130;-72
2022/08/08 10:15:50;;;;;;;;;4.00;4.00;;;;;36.18;19.66;101483.44;4996502;28;45325;-73
2022/08/08 10:18:26;;;;;;;;;5.25;4.50;;;;;36.53;20.28;101481.22;4996601;28;45474;-73
2022/08/08 10:21:00;;;;;;;;;2.75;2.75;;;;;36.52;19.05;101479.53;4997231;28;45392;-75
2022/08/08 10:23:42;;;;;;;;;4.25;4.25;;;;;36.39;19.28;101479.25;4996569;28;45331;-73
2022/08/08 10:26:14;;;;;;;;;5.00;4.25;;;;;36.50;19.29;101469.75;4996124;28;45426;-73
2022/08/08 10:28:54;;;;;;;;;1.00;1.00;;;;;36.42;19.07;101474.25;4995920;28;45508;-73
2022/08/08 10:34:13;;;;;;;;;4.25;4.25;;;;;36.34;19.12;101476.19;4996587;28;45937;-73
2022/08/08 10:36:41;;;;;;;;;4.25;4.25;;;;;36.41;19.35;101461.53;4996865;28;45408;-73
2022/08/08 10:39:08;;;;;;;;;5.00;4.75;;;;;36.46;19.05;101466.50;4995996;28;45462;-74
2022/08/08 10:41:36;;;;;;;;;4.75;4.00;;;;;36.40;19.05;101473.56;4996576;28;45404;-73
2022/08/08 10:44:01;;;;;;;;;4.00;4.00;;;;;36.36;18.68;101463.09;4995819;28;46294;-74
2022/08/08 10:46:27;;;;;;;;;5.00;5.00;;;;;36.40;18.61;101469.97;4996569;28;45348;-73
2022/08/08 10:48:54;;;;;;;;;3.75;3.75;;;;;36.28;18.78;101458.50;4996321;28;45367;-74
2022/08/08 10:51:28;;;;;;;;;4.50;4.50;;;;;36.28;18.94;101466.75;4996918;28;45464;-73
2022/08/08 10:53:54;;;;;;;;;2.00;2.00;;;;;36.56;19.46;101458.00;4996530;28;45367;-75
2022/08/08 10:56:20;;;;;;;;;3.00;3.00;;;;;36.45;19.34;101448.25;4996976;28;45460;-73
2022/08/08 10:58:46;;;;;;;;;2.50;2.50;;;;;36.59;19.04;101452.13;4995889;28;45372;-75
2022/08/08 11:01:12;;;;;;;;;3.25;3.00;;;;;36.47;19.14;101448.94;4996304;28;45404;-75
2022/08/08 11:03:46;;;;;;;;;3.00;3.00;;;;;36.28;18.44;101467.59;4995965;28;46878;-74
2022/08/08 11:06:14;;;;;;;;;3.50;3.50;;;;;36.13;18.72;101458.38;4995961;28;45354;-74
2022/08/08 11:08:40;;;;;;;;;3.00;3.00;;;;;36.00;19.24;101464.44;4996106;28;45441;-74
2022/08/08 11:11:08;;;;;;;;;4.50;4.50;;;;;35.97;20.31;101459.31;4995613;28;45820;-75
2022/08/08 11:13:44;;;;;;;;;4.25;3.00;;;;;36.10;19.62;101445.81;4995502;28;45577;-74
2022/08/08 11:16:23;;;;;;;;;2.75;2.75;;;;;36.17;18.03;101467.97;4995973;28;45474;-75
2022/08/08 11:18:49;;;;;;;;;3.00;3.00;;;;;36.27;18.69;101451.28;4996018;28;45323;-75
2022/08/08 11:21:17;;;;;;;;;3.25;3.25;;;;;36.34;18.96;101444.03;4996310;28;45309;-74
2022/08/08 11:23:43;;;;;;;;;5.00;5.00;;;;;36.30;19.17;101452.81;4995158;28;46189;-74
2022/08/08 11:26:19;;;;;;;;;2.00;2.00;;;;;36.12;18.76;101453.88;4995336;28;45418;-74
2022/08/08 11:28:45;;;;;;;;;4.25;4.25;;;;;36.22;19.04;101449.03;4996504;28;45533;-77
2022/08/08 11:31:15;;;;;;;;;3.00;3.00;;;;;36.27;18.57;101449.41;4995831;28;45579;-76
2022/08/08 11:33:48;;;;;;;;;6.00;4.50;;;;;36.28;19.02;101445.59;4995636;28;45458;-75
2022/08/08 11:36:14;;;;;;;;;3.00;3.00;;;;;36.35;18.61;101439.38;4995512;28;45395;-75
2022/08/08 11:38:45;;;;;;;;;3.00;3.00;;;;;36.48;18.09;101442.41;4994400;28;45545;-77
2022/08/08 11:41:11;;;;;;;;;3.25;3.25;;;;;36.38;17.51;101445.41;4995644;28;45454;-76
2022/08/08 11:43:38;;;;;;;;;4.75;3.50;;;;;36.59;17.94;101441.13;4994071;28;47221;-76
2022/08/08 11:46:04;;;;;;;;;4.75;3.75;;;;;36.52;18.39;101430.00;4995358;28;45458;-75
2022/08/08 11:48:31;;;;;;;;;3.50;3.50;;;;;36.52;18.09;101438.25;4995878;28;45463;-74
2022/08/08 11:50:57;;;;;;;;;2.75;2.00;;;;;36.31;17.53;101432.53;4995195;28;45401;-75
2022/08/08 11:53:23;;;;;;;;;3.00;3.00;;;;;36.35;17.36;101428.38;4995579;28;46142;-75
2022/08/08 11:55:50;;;;;;;;;2.75;2.75;;;;;36.45;17.38;101426.25;4994052;28;45450;-75